sensor_id;sensor_type;location;lat;lon;timestamp;P1;durP1;ratioP1;P2;durP2;ratioP2
8986;SDS011;4529;51.360;12.474;2024-01-15T00:02:17;11.53;;;6.77;;
8986;SDS011;4529;51.360;12.474;2024-01-15T00:07:20;8.30;;;5.73;;
8986;SDS011;4529;51.360;12.474;2024-01-15T00:12:24;9.67;;;5.60;;
8986;SDS011;4529;51.360;12.474;2024-01-15T00:17:27;10.00;;;5.70;;
8986;SDS011;4529;51.360;12.474;2024-01-15T00:22:31;7.80;;;5.17;;
8986;SDS011;4529;51.360;12.474;2024-01-15T00:27:35;8.00;;;5.60;;
8986;SDS011;4529;51.360;12.474;2024-01-15T00:32:39;10.43;;;5.60;;
8986;SDS011;4529;51.360;12.474;2024-01-15T00:37:42;9.37;;;5.63;;
8986;SDS011;4529;51.360;12.474;2024-01-15T00:42:46;8.83;;;5.53;;
8986;SDS011;4529;51.360;12.474;2024-01-15T00:47:49;8.43;;;5.57;;
8986;SDS011;4529;51.360;12.474;2024-01-15T00:52:52;8.30;;;5.70;;
8986;SDS011;4529;51.360;12.474;2024-01-15T00:57:56;9.80;;;5.57;;
8986;SDS011;4529;51.360;12.474;2024-01-15T01:03:00;8.37;;;5.20;;
8986;SDS011;4529;51.360;12.474;2024-01-15T01:08:04;9.30;;;5.87;;
8986;SDS011;4529;51.360;12.474;2024-01-15T01:13:09;8.67;;;5.47;;
8986;SDS011;4529;51.360;12.474;2024-01-15T01:18:12;11.90;;;5.90;;
8986;SDS011;4529;51.360;12.474;2024-01-15T01:23:15;7.40;;;5.23;;
8986;SDS011;4529;51.360;12.474;2024-01-15T01:28:19;7.43;;;5.10;;
8986;SDS011;4529;51.360;12.474;2024-01-15T01:33:23;9.07;;;5.30;;
8986;SDS011;4529;51.360;12.474;2024-01-15T01:38:26;9.00;;;5.53;;
8986;SDS011;4529;51.360;12.474;2024-01-15T01:43:31;9.63;;;6.03;;
8986;SDS011;4529;51.360;12.474;2024-01-15T01:48:36;13.27;;;6.37;;
8986;SDS011;4529;51.360;12.474;2024-01-15T01:53:39;8.67;;;5.77;;
8986;SDS011;4529;51.360;12.474;2024-01-15T01:58:44;10.10;;;5.80;;
8986;SDS011;4529;51.360;12.474;2024-01-15T02:03:48;13.17;;;7.30;;
8986;SDS011;4529;51.360;12.474;2024-01-15T02:08:52;11.67;;;5.73;;
8986;SDS011;4529;51.360;12.474;2024-01-15T02:13:55;10.53;;;5.97;;
8986;SDS011;4529;51.360;12.474;2024-01-15T02:18:59;8.73;;;5.57;;
8986;SDS011;4529;51.360;12.474;2024-01-15T02:24:04;10.30;;;5.43;;
8986;SDS011;4529;51.360;12.474;2024-01-15T02:29:08;9.43;;;5.30;;
8986;SDS011;4529;51.360;12.474;2024-01-15T02:34:12;8.83;;;5.30;;
8986;SDS011;4529;51.360;12.474;2024-01-15T02:39:16;10.80;;;6.37;;
8986;SDS011;4529;51.360;12.474;2024-01-15T02:44:19;7.90;;;5.13;;
8986;SDS011;4529;51.360;12.474;2024-01-15T02:49:23;7.30;;;4.90;;
8986;SDS011;4529;51.360;12.474;2024-01-15T02:54:26;8.03;;;4.90;;
8986;SDS011;4529;51.360;12.474;2024-01-15T02:59:31;8.50;;;5.27;;
8986;SDS011;4529;51.360;12.474;2024-01-15T03:04:34;9.73;;;5.00;;
8986;SDS011;4529;51.360;12.474;2024-01-15T03:09:37;7.97;;;4.93;;
8986;SDS011;4529;51.360;12.474;2024-01-15T03:14:41;8.83;;;5.10;;
8986;SDS011;4529;51.360;12.474;2024-01-15T03:19:45;9.30;;;4.93;;
8986;SDS011;4529;51.360;12.474;2024-01-15T03:24:48;8.60;;;4.73;;
8986;SDS011;4529;51.360;12.474;2024-01-15T03:29:55;8.60;;;4.77;;
8986;SDS011;4529;51.360;12.474;2024-01-15T03:34:59;7.63;;;4.87;;
8986;SDS011;4529;51.360;12.474;2024-01-15T03:40:02;7.50;;;4.97;;
8986;SDS011;4529;51.360;12.474;2024-01-15T03:45:06;7.73;;;4.43;;
8986;SDS011;4529;51.360;12.474;2024-01-15T03:50:10;6.83;;;4.27;;
8986;SDS011;4529;51.360;12.474;2024-01-15T03:55:14;9.50;;;4.60;;
8986;SDS011;4529;51.360;12.474;2024-01-15T04:00:17;7.10;;;4.40;;
8986;SDS011;4529;51.360;12.474;2024-01-15T04:05:21;7.07;;;4.60;;
8986;SDS011;4529;51.360;12.474;2024-01-15T04:10:24;7.37;;;4.70;;
8986;SDS011;4529;51.360;12.474;2024-01-15T04:15:28;6.23;;;4.43;;
8986;SDS011;4529;51.360;12.474;2024-01-15T04:20:31;8.23;;;4.27;;
8986;SDS011;4529;51.360;12.474;2024-01-15T04:25:35;9.20;;;4.40;;
8986;SDS011;4529;51.360;12.474;2024-01-15T04:30:38;7.70;;;4.20;;
8986;SDS011;4529;51.360;12.474;2024-01-15T04:35:42;7.97;;;4.47;;
8986;SDS011;4529;51.360;12.474;2024-01-15T04:40:46;8.37;;;4.37;;
8986;SDS011;4529;51.360;12.474;2024-01-15T04:45:50;6.40;;;4.33;;
8986;SDS011;4529;51.360;12.474;2024-01-15T04:50:53;6.27;;;4.00;;
8986;SDS011;4529;51.360;12.474;2024-01-15T04:55:57;6.70;;;4.10;;
8986;SDS011;4529;51.360;12.474;2024-01-15T05:01:00;5.17;;;4.00;;
8986;SDS011;4529;51.360;12.474;2024-01-15T05:06:04;5.27;;;3.57;;
8986;SDS011;4529;51.360;12.474;2024-01-15T05:11:08;7.20;;;3.90;;
8986;SDS011;4529;51.360;12.474;2024-01-15T05:16:12;5.63;;;3.43;;
8986;SDS011;4529;51.360;12.474;2024-01-15T05:21:15;6.20;;;3.47;;
8986;SDS011;4529;51.360;12.474;2024-01-15T05:26:19;5.23;;;3.47;;
8986;SDS011;4529;51.360;12.474;2024-01-15T05:31:23;5.77;;;3.67;;
8986;SDS011;4529;51.360;12.474;2024-01-15T05:36:28;6.23;;;3.97;;
8986;SDS011;4529;51.360;12.474;2024-01-15T05:41:31;7.30;;;4.00;;
8986;SDS011;4529;51.360;12.474;2024-01-15T05:46:34;5.70;;;3.80;;
8986;SDS011;4529;51.360;12.474;2024-01-15T05:51:39;5.93;;;3.87;;
8986;SDS011;4529;51.360;12.474;2024-01-15T05:56:42;7.10;;;3.80;;
8986;SDS011;4529;51.360;12.474;2024-01-15T06:01:46;6.13;;;3.83;;
8986;SDS011;4529;51.360;12.474;2024-01-15T06:06:49;4.77;;;3.57;;
8986;SDS011;4529;51.360;12.474;2024-01-15T06:11:53;7.63;;;3.90;;
8986;SDS011;4529;51.360;12.474;2024-01-15T06:16:57;9.23;;;3.43;;
8986;SDS011;4529;51.360;12.474;2024-01-15T06:22:01;5.90;;;3.53;;
8986;SDS011;4529;51.360;12.474;2024-01-15T06:27:05;7.03;;;3.70;;
8986;SDS011;4529;51.360;12.474;2024-01-15T06:32:09;5.30;;;3.63;;
8986;SDS011;4529;51.360;12.474;2024-01-15T06:37:13;6.73;;;3.30;;
8986;SDS011;4529;51.360;12.474;2024-01-15T06:42:17;5.10;;;3.10;;
8986;SDS011;4529;51.360;12.474;2024-01-15T06:47:21;7.10;;;3.97;;
8986;SDS011;4529;51.360;12.474;2024-01-15T06:52:26;5.27;;;3.90;;
8986;SDS011;4529;51.360;12.474;2024-01-15T06:57:30;6.37;;;3.73;;
8986;SDS011;4529;51.360;12.474;2024-01-15T07:02:34;7.17;;;4.00;;
8986;SDS011;4529;51.360;12.474;2024-01-15T07:07:38;5.83;;;3.63;;
8986;SDS011;4529;51.360;12.474;2024-01-15T07:12:42;6.30;;;3.50;;
8986;SDS011;4529;51.360;12.474;2024-01-15T07:17:45;6.43;;;3.70;;
8986;SDS011;4529;51.360;12.474;2024-01-15T07:22:49;6.33;;;3.13;;
8986;SDS011;4529;51.360;12.474;2024-01-15T07:27:54;5.73;;;3.90;;
8986;SDS011;4529;51.360;12.474;2024-01-15T07:32:57;6.97;;;3.87;;
8986;SDS011;4529;51.360;12.474;2024-01-15T07:38:00;5.27;;;3.57;;
8986;SDS011;4529;51.360;12.474;2024-01-15T07:43:05;4.27;;;3.50;;
8986;SDS011;4529;51.360;12.474;2024-01-15T07:48:08;5.37;;;3.70;;
8986;SDS011;4529;51.360;12.474;2024-01-15T07:53:11;5.33;;;3.77;;
8986;SDS011;4529;51.360;12.474;2024-01-15T07:58:15;8.17;;;3.93;;
8986;SDS011;4529;51.360;12.474;2024-01-15T08:03:19;7.80;;;3.93;;
8986;SDS011;4529;51.360;12.474;2024-01-15T08:08:22;5.87;;;3.47;;
8986;SDS011;4529;51.360;12.474;2024-01-15T08:13:26;5.40;;;3.77;;
8986;SDS011;4529;51.360;12.474;2024-01-15T08:18:29;4.80;;;3.30;;
8986;SDS011;4529;51.360;12.474;2024-01-15T08:23:34;8.93;;;4.00;;
8986;SDS011;4529;51.360;12.474;2024-01-15T08:28:37;8.63;;;5.23;;
8986;SDS011;4529;51.360;12.474;2024-01-15T08:33:40;5.57;;;3.70;;
8986;SDS011;4529;51.360;12.474;2024-01-15T08:38:44;5.57;;;3.47;;
8986;SDS011;4529;51.360;12.474;2024-01-15T08:43:48;6.47;;;3.87;;
8986;SDS011;4529;51.360;12.474;2024-01-15T08:48:51;6.27;;;3.60;;
8986;SDS011;4529;51.360;12.474;2024-01-15T08:53:56;6.83;;;3.60;;
8986;SDS011;4529;51.360;12.474;2024-01-15T08:58:59;8.30;;;3.50;;
8986;SDS011;4529;51.360;12.474;2024-01-15T09:04:03;5.80;;;3.40;;
8986;SDS011;4529;51.360;12.474;2024-01-15T09:09:06;5.07;;;3.40;;
8986;SDS011;4529;51.360;12.474;2024-01-15T09:14:10;5.80;;;3.63;;
8986;SDS011;4529;51.360;12.474;2024-01-15T09:19:13;5.13;;;3.20;;
8986;SDS011;4529;51.360;12.474;2024-01-15T09:24:16;7.00;;;4.00;;
8986;SDS011;4529;51.360;12.474;2024-01-15T09:29:20;6.90;;;4.27;;
8986;SDS011;4529;51.360;12.474;2024-01-15T09:34:23;5.30;;;3.43;;
8986;SDS011;4529;51.360;12.474;2024-01-15T09:39:27;8.10;;;3.83;;
8986;SDS011;4529;51.360;12.474;2024-01-15T09:44:31;6.70;;;3.87;;
8986;SDS011;4529;51.360;12.474;2024-01-15T09:49:34;6.13;;;3.17;;
8986;SDS011;4529;51.360;12.474;2024-01-15T09:54:38;4.07;;;3.20;;
8986;SDS011;4529;51.360;12.474;2024-01-15T09:59:42;6.00;;;3.47;;
8986;SDS011;4529;51.360;12.474;2024-01-15T10:04:45;6.37;;;3.53;;
8986;SDS011;4529;51.360;12.474;2024-01-15T10:09:49;3.97;;;3.27;;
8986;SDS011;4529;51.360;12.474;2024-01-15T10:14:52;6.10;;;3.50;;
8986;SDS011;4529;51.360;12.474;2024-01-15T10:19:56;6.93;;;3.60;;
8986;SDS011;4529;51.360;12.474;2024-01-15T10:25:00;5.90;;;3.77;;
8986;SDS011;4529;51.360;12.474;2024-01-15T10:30:04;5.33;;;3.60;;
8986;SDS011;4529;51.360;12.474;2024-01-15T10:35:07;5.17;;;3.33;;
8986;SDS011;4529;51.360;12.474;2024-01-15T10:40:11;5.53;;;3.30;;
8986;SDS011;4529;51.360;12.474;2024-01-15T10:45:15;5.73;;;3.37;;
8986;SDS011;4529;51.360;12.474;2024-01-15T10:50:19;5.37;;;3.50;;
8986;SDS011;4529;51.360;12.474;2024-01-15T10:55:23;4.57;;;3.37;;
8986;SDS011;4529;51.360;12.474;2024-01-15T11:00:26;5.80;;;3.30;;
8986;SDS011;4529;51.360;12.474;2024-01-15T11:05:29;5.40;;;3.50;;
8986;SDS011;4529;51.360;12.474;2024-01-15T11:10:46;6.97;;;3.17;;
8986;SDS011;4529;51.360;12.474;2024-01-15T11:16:05;5.37;;;3.60;;
8986;SDS011;4529;51.360;12.474;2024-01-15T11:26:29;6.53;;;4.00;;
8986;SDS011;4529;51.360;12.474;2024-01-15T11:41:55;4.90;;;3.40;;
8986;SDS011;4529;51.360;12.474;2024-01-15T11:46:59;6.07;;;3.87;;
8986;SDS011;4529;51.360;12.474;2024-01-15T11:52:04;5.73;;;3.60;;
8986;SDS011;4529;51.360;12.474;2024-01-15T11:57:09;5.20;;;3.70;;
8986;SDS011;4529;51.360;12.474;2024-01-15T12:02:12;5.23;;;3.67;;
8986;SDS011;4529;51.360;12.474;2024-01-15T12:07:16;5.40;;;3.77;;
8986;SDS011;4529;51.360;12.474;2024-01-15T12:12:22;6.00;;;3.70;;
8986;SDS011;4529;51.360;12.474;2024-01-15T12:17:26;5.90;;;3.53;;
8986;SDS011;4529;51.360;12.474;2024-01-15T12:22:30;3.97;;;3.40;;
8986;SDS011;4529;51.360;12.474;2024-01-15T12:27:33;4.87;;;3.43;;
8986;SDS011;4529;51.360;12.474;2024-01-15T12:32:37;5.90;;;3.50;;
8986;SDS011;4529;51.360;12.474;2024-01-15T12:37:41;4.87;;;3.60;;
8986;SDS011;4529;51.360;12.474;2024-01-15T12:42:44;7.43;;;3.40;;
8986;SDS011;4529;51.360;12.474;2024-01-15T12:47:48;7.00;;;3.57;;
8986;SDS011;4529;51.360;12.474;2024-01-15T12:52:51;6.27;;;4.07;;
8986;SDS011;4529;51.360;12.474;2024-01-15T12:57:55;4.90;;;3.10;;
8986;SDS011;4529;51.360;12.474;2024-01-15T13:02:58;5.47;;;3.17;;
8986;SDS011;4529;51.360;12.474;2024-01-15T13:08:03;6.50;;;4.00;;
8986;SDS011;4529;51.360;12.474;2024-01-15T13:13:06;8.50;;;4.10;;
8986;SDS011;4529;51.360;12.474;2024-01-15T13:18:09;6.03;;;3.83;;
8986;SDS011;4529;51.360;12.474;2024-01-15T13:23:14;7.10;;;4.63;;
8986;SDS011;4529;51.360;12.474;2024-01-15T13:28:18;4.97;;;3.97;;
8986;SDS011;4529;51.360;12.474;2024-01-15T13:33:21;4.20;;;3.50;;
8986;SDS011;4529;51.360;12.474;2024-01-15T13:38:25;7.27;;;4.90;;
8986;SDS011;4529;51.360;12.474;2024-01-15T13:43:28;4.20;;;3.43;;
8986;SDS011;4529;51.360;12.474;2024-01-15T13:48:32;6.53;;;3.20;;
8986;SDS011;4529;51.360;12.474;2024-01-15T13:53:39;6.97;;;3.23;;
8986;SDS011;4529;51.360;12.474;2024-01-15T13:58:43;6.57;;;3.37;;
8986;SDS011;4529;51.360;12.474;2024-01-15T14:03:46;6.83;;;4.23;;
8986;SDS011;4529;51.360;12.474;2024-01-15T14:08:50;6.17;;;3.50;;
8986;SDS011;4529;51.360;12.474;2024-01-15T14:13:54;6.20;;;4.60;;
8986;SDS011;4529;51.360;12.474;2024-01-15T14:18:58;5.03;;;3.47;;
8986;SDS011;4529;51.360;12.474;2024-01-15T14:24:01;4.80;;;3.30;;
8986;SDS011;4529;51.360;12.474;2024-01-15T14:29:05;4.30;;;3.07;;
8986;SDS011;4529;51.360;12.474;2024-01-15T14:34:09;3.70;;;2.90;;
8986;SDS011;4529;51.360;12.474;2024-01-15T14:39:13;4.07;;;3.20;;
8986;SDS011;4529;51.360;12.474;2024-01-15T14:44:16;4.27;;;3.40;;
8986;SDS011;4529;51.360;12.474;2024-01-15T14:49:20;6.30;;;3.77;;
8986;SDS011;4529;51.360;12.474;2024-01-15T14:54:23;4.00;;;3.40;;
8986;SDS011;4529;51.360;12.474;2024-01-15T14:59:27;6.63;;;3.23;;
8986;SDS011;4529;51.360;12.474;2024-01-15T15:04:31;3.40;;;3.03;;
8986;SDS011;4529;51.360;12.474;2024-01-15T15:09:34;5.80;;;3.70;;
8986;SDS011;4529;51.360;12.474;2024-01-15T15:14:38;3.77;;;3.30;;
8986;SDS011;4529;51.360;12.474;2024-01-15T15:19:42;6.73;;;3.47;;
8986;SDS011;4529;51.360;12.474;2024-01-15T15:24:45;4.97;;;3.23;;
8986;SDS011;4529;51.360;12.474;2024-01-15T15:29:49;3.73;;;3.10;;
8986;SDS011;4529;51.360;12.474;2024-01-15T15:34:52;5.77;;;3.17;;
8986;SDS011;4529;51.360;12.474;2024-01-15T15:39:56;5.93;;;3.37;;
8986;SDS011;4529;51.360;12.474;2024-01-15T15:44:59;4.50;;;3.67;;
8986;SDS011;4529;51.360;12.474;2024-01-15T15:50:04;5.03;;;3.27;;
8986;SDS011;4529;51.360;12.474;2024-01-15T15:55:08;5.43;;;3.87;;
8986;SDS011;4529;51.360;12.474;2024-01-15T16:00:12;6.80;;;4.20;;
8986;SDS011;4529;51.360;12.474;2024-01-15T16:05:16;4.83;;;3.27;;
8986;SDS011;4529;51.360;12.474;2024-01-15T16:10:20;6.50;;;3.93;;
8986;SDS011;4529;51.360;12.474;2024-01-15T16:15:23;4.90;;;3.70;;
8986;SDS011;4529;51.360;12.474;2024-01-15T16:20:27;5.10;;;3.63;;
8986;SDS011;4529;51.360;12.474;2024-01-15T16:25:31;6.60;;;3.83;;
8986;SDS011;4529;51.360;12.474;2024-01-15T16:30:35;5.53;;;3.63;;
8986;SDS011;4529;51.360;12.474;2024-01-15T16:35:38;6.40;;;3.83;;
8986;SDS011;4529;51.360;12.474;2024-01-15T16:40:42;5.97;;;3.53;;
8986;SDS011;4529;51.360;12.474;2024-01-15T16:45:45;7.30;;;3.50;;
8986;SDS011;4529;51.360;12.474;2024-01-15T16:50:49;5.10;;;3.83;;
8986;SDS011;4529;51.360;12.474;2024-01-15T16:55:52;5.43;;;3.40;;
8986;SDS011;4529;51.360;12.474;2024-01-15T17:00:56;4.60;;;3.30;;
8986;SDS011;4529;51.360;12.474;2024-01-15T17:06:00;3.73;;;3.13;;
8986;SDS011;4529;51.360;12.474;2024-01-15T17:11:04;6.30;;;4.70;;
8986;SDS011;4529;51.360;12.474;2024-01-15T17:16:07;9.07;;;4.67;;
8986;SDS011;4529;51.360;12.474;2024-01-15T17:21:11;4.63;;;2.90;;
8986;SDS011;4529;51.360;12.474;2024-01-15T17:26:14;4.97;;;3.87;;
8986;SDS011;4529;51.360;12.474;2024-01-15T17:31:18;3.50;;;2.57;;
8986;SDS011;4529;51.360;12.474;2024-01-15T17:36:23;5.70;;;2.70;;
8986;SDS011;4529;51.360;12.474;2024-01-15T17:41:26;5.90;;;3.27;;
8986;SDS011;4529;51.360;12.474;2024-01-15T17:46:29;4.37;;;2.97;;
8986;SDS011;4529;51.360;12.474;2024-01-15T17:51:33;4.03;;;2.80;;
8986;SDS011;4529;51.360;12.474;2024-01-15T17:56:37;3.73;;;2.70;;
8986;SDS011;4529;51.360;12.474;2024-01-15T18:01:40;3.77;;;2.93;;
8986;SDS011;4529;51.360;12.474;2024-01-15T18:06:44;4.40;;;2.97;;
8986;SDS011;4529;51.360;12.474;2024-01-15T18:11:47;4.20;;;3.13;;
8986;SDS011;4529;51.360;12.474;2024-01-15T18:16:51;4.20;;;2.97;;
8986;SDS011;4529;51.360;12.474;2024-01-15T18:21:56;3.50;;;2.63;;
8986;SDS011;4529;51.360;12.474;2024-01-15T18:26:59;5.63;;;2.80;;
8986;SDS011;4529;51.360;12.474;2024-01-15T18:32:04;4.80;;;2.87;;
8986;SDS011;4529;51.360;12.474;2024-01-15T18:37:07;3.27;;;2.50;;
8986;SDS011;4529;51.360;12.474;2024-01-15T18:42:11;5.27;;;2.60;;
8986;SDS011;4529;51.360;12.474;2024-01-15T18:47:14;2.80;;;2.53;;
8986;SDS011;4529;51.360;12.474;2024-01-15T18:52:18;3.80;;;2.60;;
8986;SDS011;4529;51.360;12.474;2024-01-15T18:57:22;5.07;;;2.83;;
8986;SDS011;4529;51.360;12.474;2024-01-15T19:02:26;2.43;;;2.17;;
8986;SDS011;4529;51.360;12.474;2024-01-15T19:07:30;2.53;;;2.30;;
8986;SDS011;4529;51.360;12.474;2024-01-15T19:12:33;2.17;;;1.97;;
8986;SDS011;4529;51.360;12.474;2024-01-15T19:17:37;2.53;;;2.30;;
8986;SDS011;4529;51.360;12.474;2024-01-15T19:22:41;3.57;;;2.43;;
8986;SDS011;4529;51.360;12.474;2024-01-15T19:27:45;3.87;;;2.33;;
8986;SDS011;4529;51.360;12.474;2024-01-15T19:32:48;5.17;;;2.63;;
8986;SDS011;4529;51.360;12.474;2024-01-15T19:37:51;2.77;;;2.53;;
8986;SDS011;4529;51.360;12.474;2024-01-15T19:42:56;7.03;;;3.03;;
8986;SDS011;4529;51.360;12.474;2024-01-15T19:48:00;3.13;;;2.83;;
8986;SDS011;4529;51.360;12.474;2024-01-15T19:53:04;4.10;;;2.97;;
8986;SDS011;4529;51.360;12.474;2024-01-15T19:58:07;4.43;;;2.90;;
8986;SDS011;4529;51.360;12.474;2024-01-15T20:03:11;3.50;;;3.00;;
8986;SDS011;4529;51.360;12.474;2024-01-15T20:08:14;3.53;;;2.80;;
8986;SDS011;4529;51.360;12.474;2024-01-15T20:13:18;3.87;;;3.07;;
8986;SDS011;4529;51.360;12.474;2024-01-15T20:18:22;3.67;;;2.50;;
8986;SDS011;4529;51.360;12.474;2024-01-15T20:23:27;3.50;;;2.60;;
8986;SDS011;4529;51.360;12.474;2024-01-15T20:28:30;6.47;;;2.73;;
8986;SDS011;4529;51.360;12.474;2024-01-15T20:33:33;2.73;;;2.53;;
8986;SDS011;4529;51.360;12.474;2024-01-15T20:38:42;4.33;;;2.40;;
8986;SDS011;4529;51.360;12.474;2024-01-15T20:43:46;2.93;;;2.63;;
8986;SDS011;4529;51.360;12.474;2024-01-15T20:48:50;3.17;;;2.50;;
8986;SDS011;4529;51.360;12.474;2024-01-15T20:53:54;3.07;;;2.27;;
8986;SDS011;4529;51.360;12.474;2024-01-15T20:58:57;3.87;;;2.57;;
8986;SDS011;4529;51.360;12.474;2024-01-15T21:04:01;2.73;;;2.40;;
8986;SDS011;4529;51.360;12.474;2024-01-15T21:09:04;2.90;;;2.20;;
8986;SDS011;4529;51.360;12.474;2024-01-15T21:14:08;3.00;;;2.17;;
8986;SDS011;4529;51.360;12.474;2024-01-15T21:19:13;2.73;;;1.93;;
8986;SDS011;4529;51.360;12.474;2024-01-15T21:24:17;2.57;;;2.10;;
8986;SDS011;4529;51.360;12.474;2024-01-15T21:29:20;2.80;;;1.87;;
8986;SDS011;4529;51.360;12.474;2024-01-15T21:34:24;4.97;;;1.97;;
8986;SDS011;4529;51.360;12.474;2024-01-15T21:39:27;3.13;;;1.83;;
8986;SDS011;4529;51.360;12.474;2024-01-15T21:44:31;6.70;;;1.70;;
8986;SDS011;4529;51.360;12.474;2024-01-15T21:49:35;2.40;;;1.70;;
8986;SDS011;4529;51.360;12.474;2024-01-15T21:54:38;4.47;;;1.63;;
8986;SDS011;4529;51.360;12.474;2024-01-15T21:59:41;6.23;;;1.80;;
8986;SDS011;4529;51.360;12.474;2024-01-15T22:04:46;4.93;;;1.53;;
8986;SDS011;4529;51.360;12.474;2024-01-15T22:09:50;3.53;;;1.60;;
8986;SDS011;4529;51.360;12.474;2024-01-15T22:14:53;3.40;;;1.90;;
8986;SDS011;4529;51.360;12.474;2024-01-15T22:19:58;3.77;;;1.90;;
8986;SDS011;4529;51.360;12.474;2024-01-15T22:25:01;2.93;;;1.70;;
8986;SDS011;4529;51.360;12.474;2024-01-15T22:30:05;2.60;;;1.80;;
8986;SDS011;4529;51.360;12.474;2024-01-15T22:35:08;5.37;;;1.80;;
8986;SDS011;4529;51.360;12.474;2024-01-15T22:40:12;4.03;;;1.70;;
8986;SDS011;4529;51.360;12.474;2024-01-15T22:45:16;3.23;;;2.07;;
8986;SDS011;4529;51.360;12.474;2024-01-15T22:50:20;5.73;;;2.00;;
8986;SDS011;4529;51.360;12.474;2024-01-15T22:55:23;2.53;;;1.60;;
8986;SDS011;4529;51.360;12.474;2024-01-15T23:00:39;6.03;;;2.03;;
8986;SDS011;4529;51.360;12.474;2024-01-15T23:05:42;6.90;;;2.07;;
8986;SDS011;4529;51.360;12.474;2024-01-15T23:10:47;1.90;;;1.80;;
8986;SDS011;4529;51.360;12.474;2024-01-15T23:15:51;4.93;;;2.10;;
8986;SDS011;4529;51.360;12.474;2024-01-15T23:20:55;2.37;;;1.83;;
8986;SDS011;4529;51.360;12.474;2024-01-15T23:25:58;3.03;;;1.80;;
8986;SDS011;4529;51.360;12.474;2024-01-15T23:31:02;3.83;;;1.63;;
8986;SDS011;4529;51.360;12.474;2024-01-15T23:36:08;2.70;;;1.90;;
8986;SDS011;4529;51.360;12.474;2024-01-15T23:41:18;3.87;;;2.20;;
8986;SDS011;4529;51.360;12.474;2024-01-15T23:46:21;5.77;;;1.90;;
8986;SDS011;4529;51.360;12.474;2024-01-15T23:51:25;3.63;;;2.10;;
8986;SDS011;4529;51.360;12.474;2024-01-15T23:56:29;3.40;;;1.83;;
